createdAt,value
2019-04-03T00:00:28.709Z,26.55
2019-04-03T00:03:00.239Z,32.50
2019-04-03T00:05:31.660Z,32.85
2019-04-03T00:08:03.085Z,30.70
2019-04-03T00:10:53.087Z,28.47
2019-04-03T00:13:24.413Z,28.75
2019-04-03T00:15:56.344Z,31.90
2019-04-03T00:18:28.208Z,28.52
2019-04-03T00:21:19.595Z,28.70
2019-04-03T00:23:52.639Z,20.50
2019-04-03T00:26:25.135Z,17.92
2019-04-03T00:28:56.842Z,12.98
2019-04-03T00:31:28.304Z,10.80
2019-04-03T00:33:59.573Z,8.23
2019-04-03T00:36:31.183Z,6.80
2019-04-03T00:39:02.465Z,7.20
2019-04-03T00:42:07.418Z,6.92
2019-04-03T00:44:38.768Z,7.80
2019-04-03T00:47:10.229Z,8.00
2019-04-03T00:49:42.151Z,8.48
2019-04-03T00:52:13.623Z,8.25
2019-04-03T00:54:44.973Z,8.90
2019-04-03T00:57:16.600Z,9.38
2019-04-03T00:59:47.986Z,9.63
2019-04-03T01:02:19.332Z,10.00
2019-04-03T01:04:51.174Z,9.33
2019-04-03T01:07:22.545Z,10.20
2019-04-03T01:09:53.991Z,10.43
2019-04-03T01:12:25.418Z,9.53
2019-04-03T01:14:56.900Z,10.48
2019-04-03T01:17:28.656Z,10.88
2019-04-03T01:20:00.499Z,10.13
2019-04-03T01:22:31.874Z,10.25
2019-04-03T01:25:03.125Z,10.85
2019-04-03T01:27:35.474Z,10.48
2019-04-03T01:30:08.462Z,10.23
2019-04-03T01:32:39.902Z,9.65
2019-04-03T01:35:31.028Z,9.85
2019-04-03T01:38:02.676Z,10.15
2019-04-03T01:40:34.160Z,10.75
2019-04-03T01:43:05.574Z,11.70
2019-04-03T01:45:37.133Z,10.63
2019-04-03T01:48:08.616Z,11.50
2019-04-03T01:50:40.067Z,11.28
2019-04-03T01:53:11.909Z,10.93
2019-04-03T01:55:43.369Z,10.50
2019-04-03T02:01:57.372Z,11.15
2019-04-03T02:05:23.979Z,11.30
2019-04-03T02:07:55.340Z,10.98
2019-04-03T02:10:27.080Z,11.38
2019-04-03T02:12:58.671Z,11.03
2019-04-03T02:15:30.303Z,10.90
2019-04-03T02:18:02.291Z,10.95
2019-04-03T02:20:33.656Z,11.12
2019-04-03T02:23:05.074Z,11.25
2019-04-03T02:25:36.625Z,11.65
2019-04-03T02:28:07.580Z,11.75
2019-04-03T02:30:39.017Z,11.08
2019-04-03T02:33:10.112Z,11.95
2019-04-03T02:35:41.106Z,11.75
2019-04-03T02:38:11.919Z,12.55
2019-04-03T02:40:43.004Z,11.88
2019-04-03T02:43:14.867Z,12.73
2019-04-03T02:45:46.227Z,15.25
2019-04-03T02:48:17.367Z,14.98
2019-04-03T02:50:48.568Z,13.22
2019-04-03T02:53:19.438Z,13.60
2019-04-03T02:55:50.488Z,12.73
2019-04-03T02:58:22.586Z,12.88
2019-04-03T03:00:53.593Z,13.75
2019-04-03T03:03:24.597Z,14.30
2019-04-03T03:05:55.379Z,15.20
2019-04-03T03:08:26.205Z,16.65
2019-04-03T03:10:58.156Z,18.90
2019-04-03T03:13:33.560Z,17.37
2019-04-03T03:16:02.369Z,16.65
2019-04-03T03:18:33.369Z,14.10
2019-04-03T03:21:06.391Z,12.93
2019-04-03T03:23:37.650Z,12.30
2019-04-03T03:26:08.737Z,13.53
2019-04-03T03:28:39.947Z,14.03
2019-04-03T03:31:12.020Z,11.85
2019-04-03T03:33:43.923Z,9.40
2019-04-03T03:36:19.944Z,10.40
2019-04-03T03:38:47.955Z,10.28
2019-04-03T03:41:21.933Z,11.03
2019-04-03T03:43:52.902Z,10.10
2019-04-03T03:46:27.912Z,9.95
2019-04-03T03:48:57.215Z,10.70
2019-04-03T03:51:31.108Z,10.88
2019-04-03T03:54:01.025Z,10.45
2019-04-03T03:56:32.729Z,11.40
2019-04-03T03:59:05.259Z,11.73
2019-04-03T04:01:36.287Z,10.88
2019-04-03T04:04:07.069Z,11.45
2019-04-03T04:06:37.907Z,13.00
2019-04-03T04:09:09.385Z,11.25
2019-04-03T04:11:41.126Z,12.47
2019-04-03T04:14:12.985Z,10.50
2019-04-03T04:16:44.177Z,11.40
2019-04-03T04:19:15.223Z,10.35
2019-04-03T04:21:46.491Z,10.45
2019-04-03T04:24:18.517Z,10.20
2019-04-03T04:27:08.551Z,9.80
2019-04-03T04:29:41.810Z,9.50
2019-04-03T04:32:14.528Z,9.25
2019-04-03T04:34:44.988Z,9.28
2019-04-03T04:37:16.104Z,9.45
2019-04-03T04:39:47.081Z,9.80
2019-04-03T04:42:18.031Z,10.20
2019-04-03T04:44:49.147Z,10.72
2019-04-03T04:47:20.118Z,10.03
2019-04-03T04:49:51.726Z,11.78
2019-04-03T04:52:23.506Z,12.50
2019-04-03T04:54:54.312Z,10.98
2019-04-03T04:57:25.199Z,9.93
2019-04-03T04:59:56.433Z,9.90
2019-04-03T05:02:27.252Z,9.50
2019-04-03T05:04:58.291Z,9.60
2019-04-03T05:07:30.817Z,9.13
2019-04-03T05:10:01.706Z,8.60
2019-04-03T05:12:32.943Z,9.25
2019-04-03T05:15:03.999Z,9.05
2019-04-03T05:17:34.976Z,8.58
2019-04-03T05:20:06.497Z,8.85
2019-04-03T05:22:37.758Z,8.45
2019-04-03T05:25:08.578Z,7.85
2019-04-03T05:27:39.621Z,7.85
2019-04-03T05:30:12.535Z,7.80
2019-04-03T05:32:43.654Z,8.28
2019-04-03T05:35:14.933Z,7.60
2019-04-03T05:37:46.571Z,7.78
2019-04-03T05:40:17.918Z,8.30
2019-04-03T05:42:48.773Z,7.70
2019-04-03T05:45:19.714Z,8.45
2019-04-03T05:47:51.054Z,8.40
2019-04-03T05:50:21.870Z,8.18
2019-04-03T05:52:52.916Z,7.30
2019-04-03T05:55:24.219Z,8.15
2019-04-03T05:57:55.047Z,7.92
2019-04-03T06:00:26.076Z,7.78
2019-04-03T06:02:58.087Z,8.38
2019-04-03T06:05:29.192Z,8.15
2019-04-03T06:08:00.515Z,8.13
2019-04-03T06:10:32.450Z,8.58
2019-04-03T06:13:05.480Z,7.78
2019-04-03T06:15:36.418Z,7.62
2019-04-03T06:18:07.278Z,8.40
2019-04-03T06:20:38.203Z,7.83
2019-04-03T06:23:09.319Z,7.92
2019-04-03T06:25:40.774Z,7.47
2019-04-03T06:28:13.374Z,8.13
2019-04-03T06:30:43.988Z,8.08
2019-04-03T06:33:14.958Z,7.75
2019-04-03T06:35:46.165Z,8.33
2019-04-03T06:38:17.321Z,8.40
2019-04-03T06:40:48.621Z,7.90
2019-04-03T06:43:19.671Z,8.93
2019-04-03T06:45:50.770Z,8.38
2019-04-03T06:48:21.749Z,8.60
2019-04-03T06:50:52.666Z,8.93
2019-04-03T06:53:27.402Z,9.20
2019-04-03T06:55:55.989Z,8.23
2019-04-03T06:58:36.815Z,8.65
2019-04-03T07:00:59.247Z,8.30
2019-04-03T07:03:30.028Z,7.72
2019-04-03T07:06:01.231Z,8.25
2019-04-03T07:08:35.418Z,7.42
2019-04-03T07:11:04.731Z,8.15
2019-04-03T07:16:15.461Z,7.62
2019-04-03T07:18:46.509Z,7.50
2019-04-03T07:21:17.370Z,6.80
2019-04-03T07:23:48.306Z,6.78
2019-04-03T07:26:19.573Z,6.72
2019-04-03T07:28:50.908Z,7.22
2019-04-03T07:31:24.063Z,6.62
2019-04-03T07:33:57.167Z,7.00
2019-04-03T07:36:26.482Z,6.72
2019-04-03T07:38:58.460Z,7.03
2019-04-03T07:41:29.867Z,6.58
2019-04-03T07:44:01.320Z,6.30
2019-04-03T07:46:33.240Z,5.87
2019-04-03T07:49:04.559Z,6.00
2019-04-03T07:51:35.640Z,6.45
2019-04-03T07:54:06.982Z,5.55
2019-04-03T07:56:38.369Z,5.72
2019-04-03T07:59:09.302Z,5.15
2019-04-03T08:01:41.637Z,5.50
2019-04-03T08:04:15.676Z,5.70
2019-04-03T08:06:44.845Z,5.65
2019-04-03T08:09:15.783Z,5.08
2019-04-03T08:11:46.905Z,5.05
2019-04-03T08:14:19.347Z,5.33
2019-04-03T08:16:50.034Z,5.58
2019-04-03T08:19:22.788Z,5.50
2019-04-03T08:21:53.414Z,5.40
2019-04-03T08:24:24.578Z,5.37
2019-04-03T08:26:55.674Z,5.35
2019-04-03T08:29:27.022Z,5.58
2019-04-03T08:31:58.093Z,5.33
2019-04-03T08:34:31.312Z,5.70
2019-04-03T08:37:02.051Z,5.20
2019-04-03T08:39:33.276Z,5.35
2019-04-03T08:42:04.153Z,5.17
2019-04-03T08:44:35.738Z,4.78
2019-04-03T08:47:08.727Z,4.72
2019-04-03T08:49:39.761Z,4.75
2019-04-03T08:52:13.606Z,5.05
2019-04-03T08:54:43.114Z,4.70
2019-04-03T08:57:13.989Z,4.42
2019-04-03T08:59:45.060Z,4.60
2019-04-03T09:02:16.137Z,4.20
2019-04-03T09:04:48.129Z,4.50
2019-04-03T09:07:19.297Z,4.65
2019-04-03T09:09:50.926Z,4.35
2019-04-03T09:12:21.861Z,3.65
2019-04-03T09:14:52.673Z,4.60
2019-04-03T09:17:23.739Z,4.42
2019-04-03T09:19:56.371Z,4.10
2019-04-03T09:22:27.280Z,3.60
2019-04-03T09:24:58.432Z,4.50
2019-04-03T09:27:30.588Z,4.30
2019-04-03T09:30:01.873Z,4.42
2019-04-03T09:32:48.739Z,4.22
2019-04-03T09:35:19.605Z,4.70
2019-04-03T09:37:50.515Z,5.00
2019-04-03T09:40:21.545Z,4.33
2019-04-03T09:43:17.975Z,4.40
2019-04-03T09:45:52.580Z,4.17
2019-04-03T09:48:24.129Z,4.12
2019-04-03T09:50:55.317Z,4.28
2019-04-03T09:53:26.741Z,4.05
2019-04-03T09:55:58.042Z,4.42
2019-04-03T09:58:28.971Z,4.95
2019-04-03T10:01:00.035Z,4.70
2019-04-03T10:03:31.654Z,5.10
2019-04-03T10:06:06.936Z,5.58
2019-04-03T10:08:40.232Z,5.42
2019-04-03T10:11:10.711Z,5.53
2019-04-03T10:14:01.752Z,6.22
2019-04-03T10:16:34.933Z,6.40
2019-04-03T10:19:05.178Z,7.20
2019-04-03T10:21:36.887Z,6.12
2019-04-03T10:24:15.460Z,6.20
2019-04-03T10:26:47.054Z,7.20
2019-04-03T10:29:24.066Z,6.83
2019-04-03T10:31:56.156Z,7.83
2019-04-03T10:35:06.598Z,7.78
2019-04-03T10:37:57.692Z,8.30
2019-04-03T10:40:28.630Z,8.58
2019-04-03T10:43:14.673Z,7.97
2019-04-03T10:45:45.437Z,7.10
2019-04-03T10:48:16.674Z,7.87
2019-04-03T10:50:48.280Z,8.25
2019-04-03T10:53:20.010Z,7.87
2019-04-03T10:55:52.699Z,7.87
2019-04-03T10:58:23.363Z,8.33
2019-04-03T11:00:54.090Z,7.60
2019-04-03T11:03:26.814Z,7.47
2019-04-03T11:06:02.144Z,7.60
2019-04-03T11:11:20.230Z,8.35
2019-04-03T11:14:10.718Z,7.72
2019-04-03T11:16:53.731Z,7.50
2019-04-03T11:19:31.172Z,7.58
2019-04-03T11:22:05.166Z,8.18
2019-04-03T11:24:38.540Z,8.38
2019-04-03T11:27:10.236Z,8.55
2019-04-03T11:29:42.653Z,7.92
2019-04-03T11:32:13.980Z,8.08
2019-04-03T11:34:48.866Z,8.33
2019-04-03T11:37:19.200Z,8.48
2019-04-03T11:40:01.389Z,9.08
2019-04-03T11:42:24.838Z,9.10
2019-04-03T11:44:55.148Z,9.40
2019-04-03T11:47:32.537Z,9.83
2019-04-03T11:50:04.456Z,9.23
2019-04-03T11:52:35.635Z,9.78
2019-04-03T11:58:29.027Z,12.47
2019-04-03T12:01:03.639Z,14.95
2019-04-03T12:03:34.321Z,13.50
2019-04-03T12:06:04.882Z,13.22
2019-04-03T12:08:35.499Z,13.75
2019-04-03T12:11:06.970Z,11.00
2019-04-03T12:13:37.987Z,9.95
2019-04-03T12:16:08.991Z,9.05
2019-04-03T12:25:29.005Z,8.40
2019-04-03T12:27:59.963Z,8.80
2019-04-03T12:30:30.816Z,8.75
2019-04-03T12:33:01.840Z,8.48
2019-04-03T12:35:33.032Z,9.78
2019-04-03T12:38:03.868Z,8.20
2019-04-03T12:40:34.714Z,9.18
2019-04-03T12:43:05.431Z,10.18
2019-04-03T12:45:36.299Z,11.40
2019-04-03T12:48:07.083Z,11.53
2019-04-03T12:50:38.082Z,11.30
2019-04-03T12:53:09.261Z,8.30
2019-04-03T12:55:42.252Z,7.42
2019-04-03T12:58:12.147Z,7.12
2019-04-03T13:00:43.557Z,6.55
2019-04-03T13:03:15.753Z,6.28
2019-04-03T13:05:48.716Z,5.50
2019-04-03T13:08:21.309Z,6.25
2019-04-03T13:10:52.403Z,5.85
2019-04-03T13:13:25.249Z,7.00
2019-04-03T13:16:01.613Z,8.00
2019-04-03T13:18:32.649Z,8.35
2019-04-03T13:21:03.430Z,8.58
2019-04-03T13:23:34.123Z,8.38
2019-04-03T13:26:05.280Z,7.85
2019-04-03T13:31:31.662Z,7.12
2019-04-03T13:34:02.751Z,6.33
2019-04-03T13:36:33.562Z,7.12
2019-04-03T13:39:05.915Z,6.85
2019-04-03T13:41:36.630Z,7.45
2019-04-03T13:44:07.346Z,6.83
2019-04-03T13:46:38.259Z,6.62
2019-04-03T13:49:09.355Z,7.80
2019-04-03T13:51:40.559Z,7.83
2019-04-03T13:54:11.798Z,7.45
2019-04-03T13:57:02.524Z,8.48
2019-04-03T13:59:33.804Z,7.08
2019-04-03T14:02:04.816Z,8.30
2019-04-03T14:04:36.404Z,7.75
2019-04-03T14:07:09.765Z,8.35
2019-04-03T14:09:40.530Z,8.33
2019-04-03T14:12:15.286Z,9.33
2019-04-03T14:14:47.857Z,9.28
2019-04-03T14:17:19.346Z,10.18
2019-04-03T14:19:53.583Z,10.35
2019-04-03T14:22:24.860Z,11.55
2019-04-03T14:25:20.561Z,11.35
2019-04-03T14:27:48.844Z,11.10
2019-04-03T14:30:22.656Z,11.08
2019-04-03T14:32:55.263Z,11.43
2019-04-03T14:35:47.983Z,12.15
2019-04-03T14:37:59.926Z,11.57
2019-04-03T14:40:31.395Z,11.90
2019-04-03T14:43:02.907Z,11.35
2019-04-03T14:45:35.469Z,12.15
2019-04-03T14:48:10.336Z,12.03
2019-04-03T14:50:44.278Z,11.45
2019-04-03T14:53:15.215Z,11.75
2019-04-03T14:55:49.694Z,11.83
2019-04-03T14:58:39.246Z,12.20
2019-04-03T15:01:10.741Z,12.88
2019-04-03T15:03:41.582Z,11.75
2019-04-03T15:06:14.569Z,11.63
2019-04-03T15:08:44.914Z,11.68
2019-04-03T15:11:21.374Z,11.63
2019-04-03T15:13:52.275Z,12.20
2019-04-03T15:16:23.269Z,11.70
2019-04-03T15:18:54.674Z,12.50
2019-04-03T15:21:26.279Z,11.30
2019-04-03T15:23:56.931Z,11.68
2019-04-03T15:26:27.634Z,12.23
2019-04-03T15:28:59.969Z,12.43
2019-04-03T15:31:31.123Z,11.95
2019-04-03T15:34:02.788Z,12.25
2019-04-03T15:36:35.898Z,12.35
2019-04-03T15:39:10.329Z,12.55
2019-04-03T15:41:41.699Z,13.30
2019-04-03T15:44:13.001Z,12.85
2019-04-03T15:46:43.904Z,13.53
2019-04-03T15:49:16.400Z,13.25
2019-04-03T15:51:47.268Z,13.15
2019-04-03T15:54:17.986Z,13.83
2019-04-03T15:56:49.756Z,13.30
2019-04-03T15:59:20.855Z,13.75
2019-04-03T16:01:51.699Z,14.07
2019-04-03T16:04:24.785Z,14.00
2019-04-03T16:06:55.501Z,13.93
2019-04-03T16:09:26.755Z,13.98
2019-04-03T16:12:00.178Z,13.68
2019-04-03T16:14:30.010Z,14.25
2019-04-03T16:17:02.290Z,14.35
2019-04-03T16:19:33.105Z,14.73
2019-04-03T16:22:03.849Z,14.85
2019-04-03T16:24:36.094Z,15.03
2019-04-03T16:27:09.961Z,14.43
2019-04-03T16:29:41.321Z,15.03
2019-04-03T16:32:12.756Z,13.70
2019-04-03T16:34:43.839Z,14.53
2019-04-03T16:37:15.302Z,14.05
2019-04-03T16:39:45.916Z,13.75
2019-04-03T16:42:17.135Z,14.25
2019-04-03T16:44:48.196Z,14.35
2019-04-03T16:47:20.744Z,13.75
2019-04-03T16:49:51.995Z,15.23
2019-04-03T16:52:24.432Z,14.78
2019-04-03T16:54:55.155Z,16.27
2019-04-03T16:57:25.864Z,15.60
2019-04-03T16:59:57.598Z,15.75
2019-04-03T17:02:29.795Z,15.23
2019-04-03T17:05:01.012Z,16.30
2019-04-03T17:07:33.600Z,14.83
2019-04-03T17:10:09.375Z,16.02
2019-04-03T17:12:39.683Z,16.97
2019-04-03T17:15:11.877Z,15.85
2019-04-03T17:17:46.136Z,16.70
2019-04-03T17:20:16.202Z,18.65
2019-04-03T17:22:47.095Z,18.15
2019-04-03T17:25:18.400Z,19.70
2019-04-03T17:27:56.513Z,19.20
2019-04-03T17:30:22.457Z,19.98
2019-04-03T17:32:53.483Z,18.92
2019-04-03T17:35:24.255Z,21.60
2019-04-03T17:37:58.926Z,24.18
2019-04-03T17:40:27.742Z,23.98
2019-04-03T17:42:58.434Z,21.87
2019-04-03T17:45:29.171Z,20.20
2019-04-03T17:48:01.714Z,15.23
2019-04-03T17:50:32.618Z,15.55
2019-04-03T17:53:06.219Z,15.45
2019-04-03T17:55:35.757Z,15.72
2019-04-03T17:58:06.585Z,16.50
2019-04-03T18:00:37.983Z,16.10
2019-04-03T18:03:08.747Z,16.70
2019-04-03T18:05:39.728Z,15.58
2019-04-03T18:08:10.669Z,16.23
2019-04-03T18:10:42.609Z,15.90
2019-04-03T18:13:13.606Z,17.57
2019-04-03T18:15:44.443Z,17.65
2019-04-03T18:18:15.236Z,17.42
2019-04-03T18:20:46.120Z,16.05
2019-04-03T18:23:16.796Z,17.62
2019-04-03T18:25:47.751Z,17.35
2019-04-03T18:28:21.008Z,18.92
2019-04-03T18:30:51.101Z,19.17
2019-04-03T18:33:23.567Z,19.25
2019-04-03T18:35:56.344Z,19.85
2019-04-03T18:38:26.963Z,17.98
2019-04-03T18:40:57.911Z,18.90
2019-04-03T18:43:28.751Z,18.40
2019-04-03T18:46:00.234Z,18.73
2019-04-03T18:48:31.118Z,18.37
2019-04-03T18:51:01.842Z,19.20
2019-04-03T18:53:32.737Z,20.40
2019-04-03T18:56:03.491Z,21.82
2019-04-03T18:58:34.226Z,21.23
2019-04-03T19:01:05.175Z,21.52
2019-04-03T19:03:36.389Z,21.77
2019-04-03T19:06:07.694Z,22.90
2019-04-03T19:08:38.495Z,24.12
2019-04-03T19:11:09.756Z,25.15
2019-04-03T19:13:41.105Z,26.35
2019-04-03T19:16:12.085Z,26.37
2019-04-03T19:18:42.833Z,26.52
2019-04-03T19:21:24.067Z,24.05
2019-04-03T19:23:49.995Z,27.55
2019-04-03T19:26:18.426Z,25.32
2019-04-03T19:28:49.433Z,27.07
2019-04-03T19:31:20.359Z,26.10
2019-04-03T19:33:51.158Z,26.25
2019-04-03T19:36:22.124Z,31.73
2019-04-03T19:38:53.613Z,31.02
2019-04-03T19:41:24.693Z,27.13
2019-04-03T19:43:55.602Z,27.60
2019-04-03T19:46:26.265Z,28.15
2019-04-03T19:48:57.410Z,26.62
2019-04-03T19:51:28.384Z,25.97
2019-04-03T19:53:59.938Z,27.32
2019-04-03T19:56:31.008Z,25.80
2019-04-03T19:59:04.652Z,25.75
2019-04-03T20:01:34.246Z,28.05
2019-04-03T20:04:05.532Z,28.62
2019-04-03T20:06:36.404Z,29.80
2019-04-03T20:09:11.420Z,26.62
2019-04-03T20:11:42.281Z,28.60
2019-04-03T20:14:13.119Z,26.95
2019-04-03T20:16:43.973Z,26.85
2019-04-03T20:19:14.654Z,27.87
2019-04-03T20:21:45.358Z,27.55
2019-04-03T20:24:16.267Z,26.82
2019-04-03T20:26:47.082Z,27.98
2019-04-03T20:29:17.862Z,26.62
2019-04-03T20:31:48.868Z,26.12
2019-04-03T20:34:19.626Z,28.62
2019-04-03T20:36:52.932Z,25.82
2019-04-03T20:39:22.664Z,26.57
2019-04-03T20:41:53.815Z,29.48
2019-04-03T20:44:24.541Z,29.67
2019-04-03T20:46:55.947Z,27.87
2019-04-03T20:49:27.182Z,27.15
2019-04-03T20:51:57.933Z,27.65
2019-04-03T20:54:28.934Z,28.73
2019-04-03T20:57:02.220Z,28.52
2019-04-03T20:59:31.995Z,26.97
2019-04-03T21:02:02.869Z,27.75
2019-04-03T21:04:36.092Z,29.15
2019-04-03T21:07:07.080Z,28.55
2019-04-03T21:09:37.993Z,29.10
2019-04-03T21:12:08.752Z,29.63
2019-04-03T21:14:41.311Z,29.80
2019-04-03T21:17:11.955Z,29.90
2019-04-03T21:19:42.670Z,30.12
2019-04-03T21:22:13.563Z,31.73
2019-04-03T21:24:44.306Z,30.97
2019-04-03T21:27:15.029Z,33.20
2019-04-03T21:29:47.713Z,31.17
2019-04-03T21:32:18.409Z,34.25
2019-04-03T21:34:49.154Z,32.05
2019-04-03T21:37:20.039Z,33.78
2019-04-03T21:39:50.819Z,30.60
2019-04-03T21:42:21.627Z,32.65
2019-04-03T21:44:52.831Z,31.37
2019-04-03T21:47:23.682Z,31.33
2019-04-03T21:49:54.421Z,33.35
2019-04-03T21:52:26.136Z,34.35
2019-04-03T21:54:58.422Z,36.83
2019-04-03T21:57:29.459Z,36.13
2019-04-03T22:00:00.218Z,35.52
2019-04-03T22:02:31.057Z,37.38
2019-04-03T22:05:02.064Z,35.28
2019-04-03T22:07:33.239Z,36.93
2019-04-03T22:10:04.265Z,36.68
2019-04-03T22:15:30.892Z,36.80
2019-04-03T22:18:01.782Z,36.70
2019-04-03T22:20:32.442Z,36.17
2019-04-03T22:23:04.875Z,36.20
2019-04-03T22:25:35.587Z,36.45
2019-04-03T22:28:06.346Z,36.63
2019-04-03T22:30:37.269Z,36.63
2019-04-03T22:33:08.174Z,36.93
2019-04-03T22:35:38.922Z,36.20
2019-04-03T22:38:09.652Z,34.80
2019-04-03T22:40:40.790Z,37.20
2019-04-03T22:43:12.030Z,35.68
2019-04-03T22:45:43.039Z,36.38
2019-04-03T22:48:13.912Z,37.23
2019-04-03T22:50:44.797Z,34.75
2019-04-03T22:53:15.512Z,35.17
2019-04-03T22:55:46.535Z,34.30
2019-04-03T22:58:18.994Z,42.00
2019-04-03T23:00:50.069Z,42.10
2019-04-03T23:03:20.745Z,41.37
2019-04-03T23:05:51.472Z,40.08
2019-04-03T23:08:23.286Z,38.08
2019-04-03T23:10:54.027Z,42.20
2019-04-03T23:13:24.862Z,44.73
2019-04-03T23:15:55.863Z,44.60
2019-04-03T23:18:26.896Z,38.40
2019-04-03T23:20:57.971Z,39.03
2019-04-03T23:23:28.891Z,38.53
2019-04-03T23:26:01.574Z,37.93
2019-04-03T23:28:33.952Z,38.35
2019-04-03T23:31:04.960Z,38.38
2019-04-03T23:33:35.491Z,37.75
2019-04-03T23:36:06.217Z,37.60
2019-04-03T23:38:36.814Z,37.33
2019-04-03T23:41:07.343Z,40.83
2019-04-03T23:43:39.266Z,39.15
2019-04-03T23:46:09.815Z,39.83
2019-04-03T23:48:40.621Z,40.30
2019-04-03T23:51:22.654Z,37.65
2019-04-03T23:53:48.351Z,38.95
2019-04-03T23:56:18.810Z,41.48
2019-04-03T23:58:49.239Z,42.35
